createdAt,value
2022-09-16T00:02:17.379Z,13.10
2022-09-16T00:05:19.989Z,13.10
2022-09-16T00:08:23.263Z,12.99
2022-09-16T00:11:26.103Z,13.02
2022-09-16T00:14:29.937Z,13.11
2022-09-16T00:17:32.787Z,13.14
2022-09-16T00:20:35.367Z,13.07
2022-09-16T00:23:38.435Z,13.04
2022-09-16T00:26:41.090Z,13.06
2022-09-16T00:29:44.911Z,13.17
2022-09-16T00:32:47.418Z,13.11
2022-09-16T00:35:49.918Z,13.14
2022-09-16T00:38:54.755Z,13.22
2022-09-16T00:41:57.317Z,13.18
2022-09-16T00:45:03.288Z,13.22
2022-09-16T00:48:08.395Z,13.13
2022-09-16T00:51:12.729Z,13.18
2022-09-16T00:54:17.038Z,13.21
2022-09-16T00:57:19.814Z,13.18
2022-09-16T01:00:23.721Z,13.27
2022-09-16T01:03:27.080Z,13.22
2022-09-16T01:06:30.168Z,13.28
2022-09-16T01:09:33.233Z,13.08
2022-09-16T01:12:37.343Z,13.05
2022-09-16T01:15:48.589Z,12.87
2022-09-16T01:19:01.941Z,12.82
2022-09-16T01:22:17.557Z,12.71
2022-09-16T01:25:38.230Z,12.71
2022-09-16T01:29:07.667Z,12.66
2022-09-16T01:32:15.499Z,12.50
2022-09-16T01:35:27.709Z,12.72
2022-09-16T01:38:50.725Z,12.81
2022-09-16T01:42:05.728Z,12.77
2022-09-16T01:45:17.494Z,12.73
2022-09-16T01:48:27.497Z,12.73
2022-09-16T01:51:36.111Z,12.66
2022-09-16T01:54:42.535Z,12.68
2022-09-16T01:57:53.096Z,12.76
2022-09-16T02:01:03.902Z,12.71
2022-09-16T02:04:14.706Z,12.69
2022-09-16T02:07:20.628Z,12.58
2022-09-16T02:10:27.410Z,12.71
2022-09-16T02:13:34.816Z,12.68
2022-09-16T02:16:43.064Z,12.67
2022-09-16T02:19:53.425Z,12.41
2022-09-16T02:23:01.241Z,12.40
2022-09-16T02:26:07.601Z,12.39
2022-09-16T02:29:15.351Z,12.39
2022-09-16T02:32:20.420Z,12.42
2022-09-16T02:35:28.067Z,12.46
2022-09-16T02:38:35.960Z,12.31
2022-09-16T02:41:40.586Z,12.35
2022-09-16T02:44:44.331Z,12.45
2022-09-16T02:47:55.327Z,12.53
2022-09-16T02:51:06.533Z,12.42
2022-09-16T02:54:15.727Z,12.54
2022-09-16T02:57:18.749Z,12.61
2022-09-16T03:00:22.247Z,12.48
2022-09-16T03:03:24.949Z,12.51
2022-09-16T03:06:30.007Z,12.52
2022-09-16T03:09:35.739Z,12.58
2022-09-16T03:12:49.501Z,12.54
2022-09-16T03:16:04.200Z,12.41
2022-09-16T03:19:16.232Z,12.50
2022-09-16T03:22:30.443Z,12.50
2022-09-16T03:25:44.143Z,12.43
2022-09-16T03:28:55.793Z,12.47
2022-09-16T03:32:06.003Z,12.45
2022-09-16T03:35:12.922Z,12.50
2022-09-16T03:38:19.407Z,12.32
2022-09-16T03:41:23.037Z,12.30
2022-09-16T03:44:33.068Z,12.20
2022-09-16T03:47:35.875Z,12.19
2022-09-16T03:50:38.490Z,12.17
2022-09-16T03:53:42.421Z,12.07
2022-09-16T03:56:45.122Z,12.17
2022-09-16T03:59:47.649Z,11.98
2022-09-16T04:02:50.320Z,11.74
2022-09-16T04:05:54.499Z,11.82
2022-09-16T04:08:59.322Z,11.99
2022-09-16T04:12:02.475Z,12.08
2022-09-16T04:15:05.713Z,12.04
2022-09-16T04:18:08.521Z,12.00
2022-09-16T04:21:10.993Z,12.05
2022-09-16T04:24:15.055Z,11.85
2022-09-16T04:27:17.530Z,11.99
2022-09-16T04:30:20.428Z,11.87
2022-09-16T04:33:23.203Z,12.10
2022-09-16T04:36:25.783Z,12.21
2022-09-16T04:39:29.602Z,12.21
2022-09-16T04:42:32.153Z,12.07
2022-09-16T04:45:34.633Z,12.30
2022-09-16T04:48:37.718Z,12.08
2022-09-16T04:51:40.364Z,12.08
2022-09-16T04:54:44.252Z,12.09
2022-09-16T04:57:46.722Z,11.94
2022-09-16T05:00:49.209Z,11.74
2022-09-16T05:03:53.830Z,11.97
2022-09-16T05:06:56.350Z,11.91
2022-09-16T05:10:00.190Z,12.07
2022-09-16T05:13:02.699Z,12.05
2022-09-16T05:16:07.276Z,12.22
2022-09-16T05:19:12.308Z,12.26
2022-09-16T05:22:14.817Z,12.17
2022-09-16T05:25:18.915Z,12.25
2022-09-16T05:28:21.687Z,12.21
2022-09-16T05:31:27.476Z,12.19
2022-09-16T05:34:30.017Z,12.17
2022-09-16T05:37:32.525Z,12.21
2022-09-16T05:40:36.472Z,12.30
2022-09-16T05:43:39.679Z,12.24
2022-09-16T05:46:43.665Z,12.29
2022-09-16T05:49:46.151Z,12.28
2022-09-16T05:52:48.629Z,12.14
2022-09-16T05:56:00.866Z,12.31
2022-09-16T05:59:03.541Z,12.42
2022-09-16T06:02:06.172Z,12.35
2022-09-16T06:05:09.497Z,12.48
2022-09-16T06:08:12.010Z,12.49
2022-09-16T06:11:16.022Z,12.50
2022-09-16T06:14:19.754Z,12.32
2022-09-16T06:17:22.267Z,12.48
2022-09-16T06:20:24.901Z,12.52
2022-09-16T06:23:27.386Z,12.47
2022-09-16T06:26:31.508Z,12.35
2022-09-16T06:29:34.058Z,12.21
2022-09-16T06:32:36.551Z,12.38
2022-09-16T06:35:39.133Z,12.35
2022-09-16T06:38:42.192Z,12.29
2022-09-16T06:41:46.773Z,12.37
2022-09-16T06:44:49.251Z,12.38
2022-09-16T06:47:51.738Z,12.67
2022-09-16T06:51:00.884Z,12.80
2022-09-16T06:54:05.423Z,12.64
2022-09-16T06:57:12.276Z,12.93
2022-09-16T07:00:15.597Z,12.94
2022-09-16T07:03:18.281Z,12.96
2022-09-16T07:06:26.645Z,13.05
2022-09-16T07:09:41.209Z,13.30
2022-09-16T07:12:45.053Z,13.21
2022-09-16T07:16:11.851Z,13.29
2022-09-16T07:19:10.851Z,13.39
2022-09-16T07:22:13.468Z,13.44
2022-09-16T07:25:16.205Z,13.40
2022-09-16T07:28:20.071Z,13.68
2022-09-16T07:31:27.552Z,13.55
2022-09-16T07:34:30.913Z,13.64
2022-09-16T07:37:33.401Z,13.71
2022-09-16T07:40:35.939Z,13.62
2022-09-16T07:43:40.421Z,13.77
2022-09-16T07:46:43.624Z,13.89
2022-09-16T07:49:46.791Z,13.85
2022-09-16T07:52:49.271Z,13.80
2022-09-16T07:55:51.879Z,14.11
2022-09-16T07:58:56.603Z,14.32
2022-09-16T08:01:59.220Z,14.48
2022-09-16T08:05:01.787Z,14.44
2022-09-16T08:08:04.390Z,14.54
2022-09-16T08:11:09.005Z,14.53
2022-09-16T08:14:12.862Z,14.78
2022-09-16T08:17:16.133Z,14.87
2022-09-16T08:20:18.818Z,14.99
2022-09-16T08:23:21.323Z,14.90
2022-09-16T08:26:24.295Z,15.05
2022-09-16T08:29:28.173Z,14.96
2022-09-16T08:32:30.931Z,15.06
2022-09-16T08:35:33.478Z,15.47
2022-09-16T08:38:36.077Z,15.53
2022-09-16T08:42:29.518Z,15.77
2022-09-16T08:45:41.412Z,16.09
2022-09-16T08:48:53.860Z,16.26
2022-09-16T08:51:57.947Z,16.13
2022-09-16T08:55:03.546Z,15.96
2022-09-16T08:58:12.607Z,16.37
2022-09-16T09:01:22.420Z,16.22
2022-09-16T09:04:25.182Z,16.44
2022-09-16T09:07:38.092Z,16.21
2022-09-16T09:10:46.827Z,16.19
2022-09-16T09:14:01.590Z,16.65
2022-09-16T09:17:16.982Z,16.64
2022-09-16T09:20:30.638Z,16.42
2022-09-16T09:23:50.156Z,16.51
2022-09-16T09:26:59.588Z,16.57
2022-09-16T09:30:11.317Z,16.38
2022-09-16T09:33:47.366Z,16.56
2022-09-16T09:37:03.252Z,16.20
2022-09-16T09:40:14.405Z,15.73
2022-09-16T09:43:21.381Z,15.53
2022-09-16T09:46:29.089Z,15.30
2022-09-16T09:49:36.603Z,15.32
2022-09-16T09:52:47.362Z,14.77
2022-09-16T09:55:56.100Z,14.32
2022-09-16T09:59:06.847Z,13.97
2022-09-16T10:02:16.918Z,13.99
2022-09-16T10:05:24.062Z,14.31
2022-09-16T10:08:30.644Z,15.00
2022-09-16T10:11:33.652Z,16.23
2022-09-16T10:14:39.011Z,17.00
2022-09-16T10:17:50.036Z,17.49
2022-09-16T10:21:04.290Z,17.66
2022-09-16T10:24:06.955Z,18.87
2022-09-16T10:27:22.231Z,18.94
2022-09-16T10:30:25.072Z,18.98
2022-09-16T10:33:31.434Z,18.65
2022-09-16T10:36:36.794Z,18.96
2022-09-16T10:39:41.212Z,18.86
2022-09-16T10:42:48.328Z,19.22
2022-09-16T10:45:53.790Z,19.69
2022-09-16T10:49:01.419Z,19.83
2022-09-16T10:52:17.255Z,18.70
2022-09-16T10:55:28.983Z,19.02
2022-09-16T10:58:31.603Z,19.85
2022-09-16T11:01:46.384Z,20.11
2022-09-16T11:05:02.327Z,20.23
2022-09-16T11:08:13.771Z,20.97
2022-09-16T11:11:40.485Z,21.62
2022-09-16T11:14:52.618Z,22.21
2022-09-16T11:18:09.946Z,21.22
2022-09-16T11:21:28.602Z,21.54
2022-09-16T11:25:00.272Z,21.07
2022-09-16T11:28:18.364Z,20.13
2022-09-16T11:31:33.166Z,19.75
2022-09-16T11:34:53.673Z,18.64
2022-09-16T11:38:04.501Z,17.36
2022-09-16T11:41:16.984Z,16.75
2022-09-16T11:44:39.179Z,16.38
2022-09-16T11:47:58.171Z,17.08
2022-09-16T11:51:07.967Z,17.82
2022-09-16T11:54:31.057Z,18.65
2022-09-16T11:57:38.929Z,18.36
2022-09-16T12:00:42.489Z,18.68
2022-09-16T12:03:50.635Z,18.66
2022-09-16T12:06:58.702Z,17.99
2022-09-16T12:10:07.247Z,18.50
2022-09-16T12:13:16.302Z,19.44
2022-09-16T12:16:27.075Z,19.82
2022-09-16T12:19:37.352Z,20.46
2022-09-16T12:22:45.692Z,20.66
2022-09-16T12:26:01.931Z,21.01
2022-09-16T12:29:12.700Z,21.59
2022-09-16T12:32:20.743Z,22.06
2022-09-16T12:35:29.392Z,21.44
2022-09-16T12:38:32.324Z,20.64
2022-09-16T12:41:51.550Z,20.18
2022-09-16T12:45:25.009Z,19.62
2022-09-16T12:48:49.007Z,19.26
2022-09-16T12:52:22.693Z,18.40
2022-09-16T12:55:50.132Z,17.29
2022-09-16T12:59:14.933Z,17.55
2022-09-16T13:02:21.703Z,17.69
2022-09-16T13:05:33.115Z,17.66
2022-09-16T13:08:37.335Z,17.37
2022-09-16T13:15:07.070Z,16.20
2022-09-16T13:18:26.510Z,15.46
2022-09-16T13:21:39.231Z,15.44
2022-09-16T13:24:46.431Z,16.12
2022-09-16T13:28:01.554Z,16.11
2022-09-16T13:31:34.016Z,16.22
2022-09-16T13:34:38.319Z,16.13
2022-09-16T13:37:40.872Z,16.27
2022-09-16T13:40:54.520Z,15.76
2022-09-16T13:43:57.414Z,14.99
2022-09-16T13:47:17.647Z,15.01
2022-09-16T13:50:26.333Z,14.60
2022-09-16T13:53:31.838Z,14.41
2022-09-16T13:56:56.582Z,14.18
2022-09-16T14:00:08.666Z,14.26
2022-09-16T14:03:42.871Z,13.92
2022-09-16T14:07:01.321Z,13.69
2022-09-16T14:10:12.810Z,13.58
2022-09-16T14:13:18.458Z,13.71
2022-09-16T14:16:24.965Z,13.59
2022-09-16T14:19:29.674Z,13.51
2022-09-16T14:22:33.737Z,13.59
2022-09-16T14:25:38.955Z,13.36
2022-09-16T14:28:41.810Z,13.18
2022-09-16T14:31:45.303Z,13.29
2022-09-16T14:34:50.317Z,13.06
2022-09-16T14:37:57.841Z,12.86
2022-09-16T14:41:00.526Z,12.56
2022-09-16T14:44:11.085Z,12.88
2022-09-16T14:47:29.645Z,12.75
2022-09-16T14:50:37.553Z,12.79
2022-09-16T14:53:49.804Z,12.49
2022-09-16T14:57:06.981Z,12.82
2022-09-16T15:00:16.874Z,12.72
2022-09-16T15:03:24.653Z,12.77
2022-09-16T15:06:34.316Z,12.47
2022-09-16T15:09:45.454Z,12.42
2022-09-16T15:12:52.780Z,12.37
2022-09-16T15:15:58.108Z,12.41
2022-09-16T15:19:02.911Z,12.43
2022-09-16T15:22:11.047Z,12.54
2022-09-16T15:25:21.248Z,12.66
2022-09-16T15:28:23.784Z,12.71
2022-09-16T15:31:32.086Z,12.66
2022-09-16T15:34:34.729Z,12.47
2022-09-16T15:37:37.247Z,12.34
2022-09-16T15:40:41.894Z,12.34
2022-09-16T15:43:47.059Z,12.30
2022-09-16T15:46:50.294Z,12.27
2022-09-16T15:49:56.799Z,12.27
2022-09-16T15:53:03.605Z,12.16
2022-09-16T15:56:18.100Z,12.35
2022-09-16T15:59:26.804Z,12.59
2022-09-16T16:02:35.847Z,12.58
2022-09-16T16:05:39.589Z,12.42
2022-09-16T16:08:45.936Z,12.54
2022-09-16T16:11:50.598Z,12.69
2022-09-16T16:14:53.109Z,12.86
2022-09-16T16:17:58.773Z,12.68
2022-09-16T16:21:02.710Z,12.63
2022-09-16T16:24:05.267Z,12.76
2022-09-16T16:27:10.157Z,12.76
2022-09-16T16:30:13.597Z,12.80
2022-09-16T16:33:16.082Z,12.86
2022-09-16T16:36:20.294Z,12.96
2022-09-16T16:39:24.304Z,12.98
2022-09-16T16:42:28.819Z,12.90
2022-09-16T16:45:31.986Z,12.93
2022-09-16T16:48:35.685Z,12.81
2022-09-16T16:51:38.655Z,12.97
2022-09-16T16:54:43.261Z,12.96
2022-09-16T16:57:47.215Z,13.20
2022-09-16T17:00:49.688Z,13.17
2022-09-16T17:03:52.896Z,13.38
2022-09-16T17:07:21.469Z,13.45
2022-09-16T17:10:17.937Z,13.43
2022-09-16T17:13:21.761Z,13.45
2022-09-16T17:16:25.613Z,13.50
2022-09-16T17:19:28.241Z,13.33
2022-09-16T17:22:30.739Z,13.40
2022-09-16T17:25:34.702Z,13.44
2022-09-16T17:28:40.093Z,13.55
2022-09-16T17:31:43.195Z,13.51
2022-09-16T17:34:45.862Z,13.60
2022-09-16T17:37:48.332Z,13.60
2022-09-16T17:40:50.848Z,13.66
2022-09-16T17:43:55.354Z,13.49
2022-09-16T17:46:57.825Z,13.52
2022-09-16T17:50:03.530Z,13.30
2022-09-16T17:53:06.011Z,13.33
2022-09-16T17:56:10.968Z,13.41
2022-09-16T17:59:17.881Z,13.40
2022-09-16T18:02:22.251Z,13.40
2022-09-16T18:05:29.318Z,13.32
2022-09-16T18:08:32.561Z,13.38
2022-09-16T18:11:35.536Z,13.49
2022-09-16T18:14:39.362Z,13.44
2022-09-16T18:17:42.019Z,13.49
2022-09-16T18:20:44.622Z,13.51
2022-09-16T18:23:49.596Z,13.58
2022-09-16T18:26:52.217Z,13.64
2022-09-16T18:29:57.726Z,13.75
2022-09-16T18:33:00.201Z,13.73
2022-09-16T18:36:05.048Z,13.71
2022-09-16T18:39:11.219Z,13.57
2022-09-16T18:42:13.927Z,13.71
2022-09-16T18:45:17.993Z,13.69
2022-09-16T18:48:20.466Z,13.64
2022-09-16T18:51:24.616Z,13.82
2022-09-16T18:54:29.464Z,13.75
2022-09-16T18:57:31.950Z,13.75
2022-09-16T19:00:36.530Z,13.62
2022-09-16T19:03:39.004Z,13.50
2022-09-16T19:06:43.400Z,13.73
2022-09-16T19:09:46.729Z,13.58
2022-09-16T19:12:49.197Z,13.68
2022-09-16T19:15:56.765Z,13.77
2022-09-16T19:19:00.823Z,13.90
2022-09-16T19:22:05.791Z,13.78
2022-09-16T19:25:08.781Z,13.58
2022-09-16T19:28:11.270Z,13.74
2022-09-16T19:31:15.655Z,13.82
2022-09-16T19:34:18.569Z,13.86
2022-09-16T19:37:21.626Z,13.74
2022-09-16T19:40:24.171Z,13.93
2022-09-16T19:43:26.707Z,13.93
2022-09-16T19:46:33.986Z,13.94
2022-09-16T19:49:36.480Z,13.88
2022-09-16T19:52:40.582Z,13.87
2022-09-16T19:55:43.364Z,13.85
2022-09-16T19:58:45.837Z,13.85
2022-09-16T20:01:50.099Z,13.73
2022-09-16T20:04:52.627Z,13.85
2022-09-16T20:07:55.207Z,13.73
2022-09-16T20:11:03.542Z,13.66
2022-09-16T20:14:07.413Z,13.74
2022-09-16T20:17:11.298Z,13.81
2022-09-16T20:20:13.823Z,13.87
2022-09-16T20:23:16.337Z,13.97
2022-09-16T20:26:20.214Z,14.01
2022-09-16T20:29:22.712Z,13.93
2022-09-16T20:32:26.748Z,13.82
2022-09-16T20:35:29.229Z,13.82
2022-09-16T20:38:31.992Z,13.67
2022-09-16T20:41:36.280Z,13.74
2022-09-16T20:44:38.752Z,13.58
2022-09-16T20:47:42.588Z,13.72
2022-09-16T20:50:45.100Z,13.70
2022-09-16T20:53:52.030Z,13.73
2022-09-16T20:56:54.772Z,13.78
2022-09-16T20:59:57.518Z,13.76
2022-09-16T21:03:01.376Z,13.82
2022-09-16T21:06:06.682Z,13.80
2022-09-16T21:09:12.313Z,13.83
2022-09-16T21:12:16.952Z,13.82
2022-09-16T21:15:19.599Z,13.70
2022-09-16T21:18:23.505Z,13.83
2022-09-16T21:21:27.657Z,13.79
2022-09-16T21:24:31.960Z,13.85
2022-09-16T21:27:34.558Z,13.80
2022-09-16T21:30:37.042Z,13.88
2022-09-16T21:33:42.493Z,13.94
2022-09-16T21:36:45.971Z,13.96
2022-09-16T21:39:48.780Z,13.96
2022-09-16T21:42:51.312Z,13.92
2022-09-16T21:45:54.137Z,14.00
2022-09-16T21:49:03.140Z,13.99
2022-09-16T21:52:05.845Z,13.98
2022-09-16T21:55:09.071Z,14.02
2022-09-16T21:58:11.928Z,14.07
2022-09-16T22:01:16.806Z,14.11
2022-09-16T22:04:22.714Z,14.13
2022-09-16T22:07:25.257Z,14.04
2022-09-16T22:10:28.022Z,14.03
2022-09-16T22:13:31.562Z,14.05
2022-09-16T22:16:37.097Z,14.05
2022-09-16T22:19:40.965Z,14.09
2022-09-16T22:22:43.573Z,14.10
2022-09-16T22:25:46.429Z,14.11
2022-09-16T22:28:49.868Z,13.98
2022-09-16T22:31:52.448Z,13.93
2022-09-16T22:34:56.392Z,13.93
2022-09-16T22:37:58.883Z,13.97
2022-09-16T22:41:01.503Z,13.98
2022-09-16T22:44:04.619Z,13.95
2022-09-16T22:47:07.712Z,13.96
2022-09-16T22:50:11.594Z,13.88
2022-09-16T22:53:14.079Z,13.91
2022-09-16T22:56:18.906Z,13.97
2022-09-16T22:59:21.782Z,13.97
2022-09-16T23:02:24.309Z,13.97
2022-09-16T23:05:28.448Z,13.93
2022-09-16T23:08:31.819Z,13.89
2022-09-16T23:11:36.133Z,13.96
2022-09-16T23:14:38.633Z,14.07
2022-09-16T23:17:41.497Z,14.10
2022-09-16T23:20:45.338Z,14.19
2022-09-16T23:23:49.410Z,14.14
2022-09-16T23:26:52.015Z,14.22
2022-09-16T23:29:54.601Z,14.18
2022-09-16T23:32:57.271Z,14.28
2022-09-16T23:36:01.593Z,14.31
2022-09-16T23:39:05.350Z,14.33
2022-09-16T23:42:07.991Z,14.20
2022-09-16T23:45:10.925Z,14.25
2022-09-16T23:48:14.229Z,14.33
2022-09-16T23:51:21.062Z,14.40
2022-09-16T23:54:26.010Z,14.12
2022-09-16T23:57:28.503Z,14.23
